Main page
METAR-TAF:

METAR-TAF

Airports :

Salamanca Airport

Salamanca, Spain

latitude: 40-57N, longitude: 005-30W, elevation: 793 m

Current weather observation

The report was made 38 minutes ago, at 21:30 UTC
Calm wind
Temperature 8°C
Humidity 93%
Pressure 1027 hPa
Visibility: 0250 m
fog

METAR: LESA 272130Z AUTO 00000KT 0250 R21/0800U FG VV/// 08/07 Q1027

Time: 23:08 (22:08 UTC)

Forecast

The report was made 1 hour and 30 minutes ago, at 20:38 UTC
Forecast valid from 27 at 21 UTC to 28 at 21 UTC
Wind 8 kt from the West/Southwest
Visibility 10 km or more
Broken clouds at a height of 2000 ft
Temporary
from 27 at 21 UTC to 28 at 13 UTC
Visibility: 1500 m
Broken clouds at a height of 300 ft
mist, patches of fog
Probability 40% :
Temporary
from 27 at 21 UTC to 28 at 10 UTC
Visibility: 0400 m
at a height of 100 ft
fog

TAF: LESA 272038Z 2721/2821 25008KT 9999 BKN020 TX16/2815Z TN06/2806Z TEMPO 2721/2813 1500 BR BCFG BKN003 PROB40 TEMPO 2721/2810 0400 FG VV001

Weather observations and forecasts of more than 4000 airports (METAR and TAF reports).

The available stations are represented by yellow and red dots on the map.

Hover mouse over dot to see the name of the station.

Then click to see weather observations and forecasts.

To change the map : click on the green buttons with a black cross to zoom in, on the green button with a dash to zoom out, or on the green arrows for adjacent maps.


METAR-TAF: